DAL6784 MMMX-KIAH
Flight info
| Callsign | DAL6784 |
|---|---|
| Flight time | 1h 38m |
| Altitude | 37000 |
| Route | IKLAN2A IKLAN UT139 ONGOB UJ35 MAM/N0453F400 DCT CRP HTOWN3 |
| Aircraft | A339/H-SADE1E2E3GHIJ3J5M1P2RWXY/LB2D1 |
Departure
| Time | 2026-05-07 22:11 |
|---|---|
| Airport | Mexico City Benito Juárez International Airport (MMMX) |
Arrival
| Time | 2026-05-07 23:49 |
|---|---|
| Airport | George Bush Intercontinental Airport (KIAH) |
| Time | Latitude | Longitude | Altitude | Speed | Heading |
|---|---|---|---|---|---|
| 2026-05-07 21:52 | 19.43428 | -99.08257 | 7308 ft | 0 kts | 330° |
| 2026-05-07 21:52 | 19.43428 | -99.08256 | 7308 ft | 0 kts | 330° |
| 2026-05-07 21:56 | 19.43427 | -99.08256 | 7290 ft | 0 kts | 330° |
| 2026-05-07 22:01 | 19.43423 | -99.08254 | 7308 ft | 2 kts | 328° |
| 2026-05-07 22:01 | 19.43414 | -99.08243 | 7310 ft | 2 kts | 328° |
| 2026-05-07 22:02 | 19.43395 | -99.08246 | 7312 ft | 2 kts | 228° |
| 2026-05-07 22:02 | 19.43409 | -99.08232 | 7309 ft | 2 kts | 51° |
| 2026-05-07 22:02 | 19.43393 | -99.08247 | 7316 ft | 0 kts | 222° |
| 2026-05-07 22:02 | 19.43383 | -99.08252 | 7322 ft | 3 kts | 209° |
| 2026-05-07 22:03 | 19.43335 | -99.08270 | 7308 ft | 8 kts | 210° |
| 2026-05-07 22:03 | 19.43317 | -99.08295 | 7308 ft | 0 kts | 242° |
| 2026-05-07 22:04 | 19.43295 | -99.08332 | 7308 ft | 9 kts | 238° |
| 2026-05-07 22:05 | 19.43261 | -99.08392 | 7307 ft | 10 kts | 240° |
| 2026-05-07 22:05 | 19.43224 | -99.08458 | 7307 ft | 11 kts | 238° |
| 2026-05-07 22:05 | 19.43183 | -99.08529 | 7307 ft | 11 kts | 238° |
| 2026-05-07 22:05 | 19.43140 | -99.08602 | 7307 ft | 12 kts | 238° |
| 2026-05-07 22:06 | 19.43097 | -99.08677 | 7307 ft | 13 kts | 238° |
| 2026-05-07 22:06 | 19.43052 | -99.08760 | 7306 ft | 13 kts | 242° |
| 2026-05-07 22:06 | 19.43004 | -99.08845 | 7307 ft | 14 kts | 237° |
| 2026-05-07 22:06 | 19.42953 | -99.08929 | 7307 ft | 14 kts | 237° |
| 2026-05-07 22:07 | 19.42900 | -99.09017 | 7307 ft | 14 kts | 237° |
| 2026-05-07 22:07 | 19.42843 | -99.09055 | 7307 ft | 9 kts | 203° |
| 2026-05-07 22:07 | 19.42786 | -99.09081 | 7307 ft | 9 kts | 203° |
| 2026-05-07 22:07 | 19.42727 | -99.09094 | 7308 ft | 8 kts | 175° |
| 2026-05-07 22:08 | 19.42689 | -99.09059 | 7308 ft | 7 kts | 122° |
| 2026-05-07 22:08 | 19.42673 | -99.09014 | 7308 ft | 7 kts | 112° |
| 2026-05-07 22:08 | 19.42655 | -99.08967 | 7308 ft | 7 kts | 112° |
| 2026-05-07 22:08 | 19.42635 | -99.08915 | 7308 ft | 8 kts | 112° |
| 2026-05-07 22:09 | 19.42614 | -99.08860 | 7308 ft | 8 kts | 112° |
| 2026-05-07 22:09 | 19.42595 | -99.08803 | 7308 ft | 8 kts | 104° |
| 2026-05-07 22:09 | 19.42608 | -99.08750 | 7308 ft | 7 kts | 64° |
| 2026-05-07 22:09 | 19.42632 | -99.08705 | 7309 ft | 7 kts | 60° |
| 2026-05-07 22:10 | 19.42654 | -99.08665 | 7309 ft | 6 kts | 60° |
| 2026-05-07 22:10 | 19.42695 | -99.08590 | 7309 ft | 28 kts | 59° |
| 2026-05-07 22:10 | 19.42928 | -99.08173 | 7308 ft | 102 kts | 60° |
| 2026-05-07 22:10 | 19.43398 | -99.07334 | 7313 ft | 160 kts | 60° |
| 2026-05-07 22:11 | 19.44026 | -99.06230 | 7608 ft | 183 kts | 60° |
| 2026-05-07 22:11 | 19.44722 | -99.05057 | 8345 ft | 192 kts | 58° |
| 2026-05-07 22:11 | 19.45433 | -99.03824 | 9160 ft | 198 kts | 58° |
| 2026-05-07 22:11 | 19.46160 | -99.02542 | 9533 ft | 207 kts | 58° |
| 2026-05-07 22:12 | 19.46932 | -99.01225 | 9842 ft | 211 kts | 58° |
| 2026-05-07 22:12 | 19.47751 | -98.99896 | 10313 ft | 221 kts | 58° |
| 2026-05-07 22:12 | 19.48612 | -98.98508 | 10624 ft | 235 kts | 58° |
| 2026-05-07 22:12 | 19.49534 | -98.96997 | 10775 ft | 255 kts | 59° |
| 2026-05-07 22:13 | 19.50495 | -98.95335 | 10921 ft | 273 kts | 60° |
| 2026-05-07 22:13 | 19.51491 | -98.93544 | 11036 ft | 291 kts | 60° |
| 2026-05-07 22:13 | 19.52545 | -98.91641 | 11153 ft | 308 kts | 60° |
| 2026-05-07 22:13 | 19.53778 | -98.89714 | 11260 ft | 324 kts | 51° |
| 2026-05-07 22:14 | 19.55338 | -98.87910 | 11443 ft | 337 kts | 47° |
| 2026-05-07 22:14 | 19.56942 | -98.86092 | 11893 ft | 339 kts | 47° |
| 2026-05-07 22:14 | 19.58549 | -98.84254 | 12404 ft | 340 kts | 47° |
| 2026-05-07 22:14 | 19.60159 | -98.82394 | 12884 ft | 343 kts | 47° |
| 2026-05-07 22:15 | 19.61787 | -98.80517 | 13318 ft | 348 kts | 47° |
| 2026-05-07 22:15 | 19.63429 | -98.78623 | 13858 ft | 350 kts | 47° |
| 2026-05-07 22:15 | 19.65091 | -98.76706 | 14247 ft | 354 kts | 48° |
| 2026-05-07 22:15 | 19.66764 | -98.74774 | 14727 ft | 357 kts | 48° |
| 2026-05-07 22:16 | 19.68454 | -98.72820 | 15122 ft | 361 kts | 48° |
| 2026-05-07 22:16 | 19.70281 | -98.71037 | 15652 ft | 366 kts | 35° |
| 2026-05-07 22:16 | 19.72659 | -98.69870 | 15867 ft | 380 kts | 14° |
| 2026-05-07 22:16 | 19.75246 | -98.69529 | 16378 ft | 379 kts | 2° |
| 2026-05-07 22:17 | 19.77900 | -98.69407 | 16752 ft | 384 kts | 1° |
| 2026-05-07 22:17 | 19.80567 | -98.69296 | 17268 ft | 385 kts | 1° |
| 2026-05-07 22:17 | 19.83271 | -98.69161 | 17623 ft | 390 kts | 2° |
| 2026-05-07 22:17 | 19.85984 | -98.69000 | 18122 ft | 392 kts | 2° |
| 2026-05-07 22:18 | 19.88728 | -98.68822 | 18495 ft | 395 kts | 3° |
| 2026-05-07 22:18 | 19.94254 | -98.68479 | 19571 ft | 397 kts | 359° |
| 2026-05-07 22:18 | 19.96980 | -98.68871 | 20002 ft | 398 kts | 342° |
| 2026-05-07 22:19 | 19.99492 | -98.70091 | 20391 ft | 397 kts | 323° |
| 2026-05-07 22:19 | 20.01708 | -98.71832 | 20843 ft | 398 kts | 320° |
| 2026-05-07 22:19 | 20.03949 | -98.73617 | 21207 ft | 405 kts | 320° |
| 2026-05-07 22:19 | 20.06213 | -98.75401 | 21688 ft | 406 kts | 321° |
| 2026-05-07 22:20 | 20.08495 | -98.77181 | 22114 ft | 408 kts | 321° |
| 2026-05-07 22:20 | 20.10801 | -98.78966 | 22447 ft | 412 kts | 321° |
| 2026-05-07 22:20 | 20.13133 | -98.80767 | 22829 ft | 414 kts | 321° |
| 2026-05-07 22:20 | 20.15441 | -98.82550 | 23237 ft | 416 kts | 321° |
| 2026-05-07 22:21 | 20.17783 | -98.84375 | 23596 ft | 420 kts | 321° |
| 2026-05-07 22:21 | 20.20139 | -98.86222 | 23924 ft | 422 kts | 321° |
| 2026-05-07 22:21 | 20.22587 | -98.87955 | 24296 ft | 425 kts | 331° |
| 2026-05-07 22:21 | 20.25368 | -98.89061 | 24670 ft | 430 kts | 345° |
| 2026-05-07 22:22 | 20.28354 | -98.89416 | 24999 ft | 435 kts | 359° |
| 2026-05-07 22:22 | 20.31380 | -98.89344 | 25367 ft | 436 kts | 0° |
| 2026-05-07 22:22 | 20.34426 | -98.89247 | 25712 ft | 439 kts | 0° |
| 2026-05-07 22:22 | 20.37482 | -98.89166 | 26044 ft | 442 kts | 360° |
| 2026-05-07 22:23 | 20.40564 | -98.89104 | 26374 ft | 443 kts | 359° |
| 2026-05-07 22:23 | 20.43658 | -98.89055 | 26705 ft | 446 kts | 359° |
| 2026-05-07 22:23 | 20.46742 | -98.89244 | 27037 ft | 445 kts | 348° |
| 2026-05-07 22:23 | 20.49709 | -98.90148 | 27353 ft | 443 kts | 335° |
| 2026-05-07 22:24 | 20.52502 | -98.91523 | 27700 ft | 443 kts | 330° |
| 2026-05-07 22:24 | 20.55256 | -98.93019 | 27998 ft | 446 kts | 330° |
| 2026-05-07 22:24 | 20.58012 | -98.94549 | 28364 ft | 447 kts | 329° |
| 2026-05-07 22:24 | 20.60774 | -98.96090 | 28734 ft | 448 kts | 329° |
| 2026-05-07 22:25 | 20.63548 | -98.97638 | 29037 ft | 451 kts | 329° |
| 2026-05-07 22:25 | 20.66294 | -98.99176 | 29416 ft | 452 kts | 329° |
| 2026-05-07 22:25 | 20.69092 | -99.00744 | 29686 ft | 456 kts | 329° |
| 2026-05-07 22:25 | 20.71903 | -99.02318 | 30071 ft | 456 kts | 329° |
| 2026-05-07 22:26 | 20.74717 | -99.03891 | 30389 ft | 458 kts | 329° |
| 2026-05-07 22:26 | 20.77547 | -99.05470 | 30670 ft | 459 kts | 329° |
| 2026-05-07 22:26 | 20.80384 | -99.07054 | 30987 ft | 460 kts | 329° |
| 2026-05-07 22:26 | 20.83231 | -99.08646 | 31313 ft | 461 kts | 329° |
| 2026-05-07 22:27 | 20.86085 | -99.10224 | 31600 ft | 464 kts | 329° |
| 2026-05-07 22:27 | 20.88957 | -99.11819 | 31895 ft | 466 kts | 329° |
| 2026-05-07 22:27 | 20.91834 | -99.13412 | 32316 ft | 465 kts | 329° |
| 2026-05-07 22:27 | 20.94866 | -99.14674 | 32623 ft | 472 kts | 341° |
| 2026-05-07 22:28 | 20.97008 | -99.15156 | 32814 ft | 478 kts | 348° |
| 2026-05-07 22:28 | 21.00350 | -99.15314 | 33094 ft | 486 kts | 360° |
| 2026-05-07 22:28 | 21.03711 | -99.14768 | 33393 ft | 492 kts | 12° |
| 2026-05-07 22:28 | 21.06967 | -99.13604 | 33744 ft | 494 kts | 18° |
| 2026-05-07 22:29 | 21.11213 | -99.11828 | 34155 ft | 494 kts | 18° |
| 2026-05-07 22:29 | 21.13386 | -99.10971 | 34376 ft | 493 kts | 17° |
| 2026-05-07 22:29 | 21.16629 | -99.09779 | 34672 ft | 492 kts | 15° |
| 2026-05-07 22:29 | 21.19879 | -99.08658 | 35015 ft | 490 kts | 14° |
| 2026-05-07 22:30 | 21.23134 | -99.07574 | 35395 ft | 488 kts | 14° |
| 2026-05-07 22:30 | 21.26374 | -99.06507 | 35719 ft | 487 kts | 14° |
| 2026-05-07 22:30 | 21.29572 | -99.05455 | 36024 ft | 487 kts | 14° |
| 2026-05-07 22:30 | 21.32809 | -99.04388 | 36360 ft | 486 kts | 14° |
| 2026-05-07 22:31 | 21.36047 | -99.03319 | 36668 ft | 486 kts | 14° |
| 2026-05-07 22:31 | 21.42495 | -99.01189 | 36784 ft | 483 kts | 14° |
| 2026-05-07 22:32 | 21.48923 | -98.99056 | 36775 ft | 482 kts | 14° |
| 2026-05-07 22:32 | 21.55348 | -98.96924 | 36791 ft | 485 kts | 14° |
| 2026-05-07 22:33 | 21.61783 | -98.94790 | 36762 ft | 483 kts | 13° |
| 2026-05-07 22:33 | 21.68213 | -98.92658 | 36751 ft | 484 kts | 13° |
| 2026-05-07 22:34 | 21.74640 | -98.90522 | 36738 ft | 483 kts | 13° |
| 2026-05-07 22:34 | 21.81028 | -98.88397 | 36739 ft | 483 kts | 13° |
| 2026-05-07 22:35 | 21.87457 | -98.86257 | 36730 ft | 483 kts | 13° |
| 2026-05-07 22:35 | 21.93886 | -98.84111 | 36729 ft | 484 kts | 13° |
| 2026-05-07 22:36 | 22.00325 | -98.81966 | 36730 ft | 483 kts | 13° |
| 2026-05-07 22:36 | 22.06751 | -98.79821 | 36730 ft | 483 kts | 13° |
| 2026-05-07 22:37 | 22.13138 | -98.77686 | 36744 ft | 483 kts | 13° |
| 2026-05-07 22:37 | 22.19567 | -98.75535 | 36743 ft | 483 kts | 13° |
| 2026-05-07 22:38 | 22.25999 | -98.73380 | 36750 ft | 485 kts | 13° |
| 2026-05-07 22:38 | 22.32430 | -98.71225 | 36746 ft | 484 kts | 13° |
| 2026-05-07 22:39 | 22.38854 | -98.69068 | 36750 ft | 483 kts | 12° |
| 2026-05-07 22:39 | 22.45276 | -98.66913 | 36751 ft | 483 kts | 13° |
| 2026-05-07 22:40 | 22.51655 | -98.64769 | 36755 ft | 483 kts | 13° |
| 2026-05-07 22:40 | 22.58089 | -98.62604 | 36772 ft | 486 kts | 12° |
| 2026-05-07 22:41 | 22.64623 | -98.60369 | 36772 ft | 495 kts | 12° |
| 2026-05-07 22:41 | 22.71206 | -98.58228 | 36775 ft | 492 kts | 12° |
| 2026-05-07 22:42 | 22.77767 | -98.56044 | 36782 ft | 494 kts | 12° |
| 2026-05-07 22:42 | 22.84319 | -98.53824 | 36782 ft | 493 kts | 13° |
| 2026-05-07 22:43 | 22.90838 | -98.51609 | 36793 ft | 495 kts | 13° |
| 2026-05-07 22:43 | 22.97427 | -98.49368 | 36793 ft | 495 kts | 13° |
| 2026-05-07 22:44 | 23.04005 | -98.47129 | 36830 ft | 496 kts | 13° |
| 2026-05-07 22:44 | 23.10669 | -98.44863 | 36833 ft | 507 kts | 13° |
| 2026-05-07 22:45 | 23.17444 | -98.42552 | 36840 ft | 514 kts | 13° |
| 2026-05-07 22:45 | 23.24293 | -98.40213 | 36839 ft | 517 kts | 13° |
| 2026-05-07 22:46 | 23.31178 | -98.37859 | 36844 ft | 519 kts | 13° |
| 2026-05-07 22:46 | 23.38033 | -98.35525 | 36844 ft | 520 kts | 13° |
| 2026-05-07 22:47 | 23.44949 | -98.33166 | 36847 ft | 520 kts | 13° |
| 2026-05-07 22:47 | 23.51859 | -98.30806 | 36845 ft | 520 kts | 13° |
| 2026-05-07 22:48 | 23.58763 | -98.28446 | 36843 ft | 520 kts | 13° |
| 2026-05-07 22:48 | 23.65668 | -98.26083 | 36843 ft | 519 kts | 13° |
| 2026-05-07 22:49 | 23.72564 | -98.23719 | 36834 ft | 519 kts | 13° |
| 2026-05-07 22:49 | 23.79461 | -98.21353 | 36832 ft | 519 kts | 13° |
| 2026-05-07 22:50 | 23.86354 | -98.18984 | 36843 ft | 519 kts | 13° |
| 2026-05-07 22:50 | 23.93220 | -98.16622 | 36836 ft | 520 kts | 13° |
| 2026-05-07 22:51 | 24.00123 | -98.14246 | 36836 ft | 520 kts | 13° |
| 2026-05-07 22:51 | 24.07025 | -98.11868 | 36839 ft | 520 kts | 13° |
| 2026-05-07 22:52 | 24.13934 | -98.09484 | 36836 ft | 520 kts | 13° |
| 2026-05-07 22:52 | 24.20841 | -98.07097 | 36838 ft | 521 kts | 12° |
| 2026-05-07 22:53 | 24.27764 | -98.04704 | 36834 ft | 522 kts | 12° |
| 2026-05-07 22:53 | 24.34691 | -98.02308 | 36840 ft | 522 kts | 12° |
| 2026-05-07 22:54 | 24.41572 | -97.99926 | 36840 ft | 522 kts | 12° |
| 2026-05-07 22:54 | 24.48502 | -97.97524 | 36840 ft | 522 kts | 12° |
| 2026-05-07 22:55 | 24.55431 | -97.95119 | 36842 ft | 521 kts | 12° |
| 2026-05-07 22:55 | 24.62341 | -97.92718 | 36843 ft | 521 kts | 12° |
| 2026-05-07 22:56 | 24.69253 | -97.90314 | 36847 ft | 520 kts | 12° |
| 2026-05-07 22:56 | 24.76154 | -97.87911 | 36855 ft | 520 kts | 12° |
| 2026-05-07 22:57 | 24.83053 | -97.85505 | 36863 ft | 521 kts | 12° |
| 2026-05-07 22:57 | 24.89939 | -97.83102 | 36857 ft | 523 kts | 12° |
| 2026-05-07 22:58 | 24.96884 | -97.80674 | 36867 ft | 523 kts | 12° |
| 2026-05-07 22:58 | 25.03832 | -97.78242 | 36861 ft | 524 kts | 13° |
| 2026-05-07 22:59 | 25.10778 | -97.75809 | 36868 ft | 524 kts | 13° |
| 2026-05-07 22:59 | 25.17746 | -97.73365 | 36866 ft | 526 kts | 12° |
| 2026-05-07 23:00 | 25.24729 | -97.70913 | 36869 ft | 527 kts | 12° |
| 2026-05-07 23:00 | 25.31723 | -97.68454 | 36885 ft | 528 kts | 12° |
| 2026-05-07 23:01 | 25.38730 | -97.65988 | 36884 ft | 528 kts | 12° |
| 2026-05-07 23:01 | 25.45679 | -97.63532 | 36887 ft | 529 kts | 12° |
| 2026-05-07 23:02 | 25.52697 | -97.61047 | 36883 ft | 530 kts | 12° |
| 2026-05-07 23:02 | 25.59727 | -97.58557 | 36889 ft | 530 kts | 12° |
| 2026-05-07 23:03 | 25.66769 | -97.56059 | 36889 ft | 531 kts | 12° |
| 2026-05-07 23:03 | 25.73806 | -97.53575 | 36885 ft | 529 kts | 11° |
| 2026-05-07 23:04 | 25.80975 | -97.52237 | 36888 ft | 517 kts | 356° |
| 2026-05-07 23:04 | 25.88112 | -97.52003 | 36889 ft | 516 kts | 355° |
| 2026-05-07 23:05 | 25.95293 | -97.51733 | 36894 ft | 517 kts | 355° |
| 2026-05-07 23:05 | 26.02486 | -97.51465 | 36914 ft | 517 kts | 355° |
| 2026-05-07 23:06 | 26.09672 | -97.51200 | 36921 ft | 517 kts | 355° |
| 2026-05-07 23:06 | 26.16861 | -97.50938 | 36923 ft | 517 kts | 355° |
| 2026-05-07 23:07 | 26.24058 | -97.50675 | 36924 ft | 517 kts | 355° |
| 2026-05-07 23:07 | 26.31246 | -97.50411 | 36925 ft | 517 kts | 355° |
| 2026-05-07 23:08 | 26.38434 | -97.50147 | 36938 ft | 517 kts | 355° |
| 2026-05-07 23:08 | 26.45620 | -97.49882 | 36925 ft | 516 kts | 355° |
| 2026-05-07 23:09 | 26.52795 | -97.49619 | 36926 ft | 516 kts | 355° |
| 2026-05-07 23:09 | 26.59969 | -97.49354 | 36930 ft | 516 kts | 355° |
| 2026-05-07 23:10 | 26.67100 | -97.49091 | 36930 ft | 516 kts | 355° |
| 2026-05-07 23:10 | 26.74270 | -97.48826 | 36933 ft | 515 kts | 355° |
| 2026-05-07 23:11 | 26.81437 | -97.48560 | 36932 ft | 515 kts | 355° |
| 2026-05-07 23:11 | 26.88609 | -97.48295 | 36934 ft | 515 kts | 355° |
| 2026-05-07 23:12 | 26.95774 | -97.48030 | 36936 ft | 515 kts | 355° |
| 2026-05-07 23:12 | 27.02949 | -97.47763 | 36933 ft | 516 kts | 354° |
| 2026-05-07 23:13 | 27.10124 | -97.47496 | 36940 ft | 516 kts | 354° |
| 2026-05-07 23:13 | 27.17314 | -97.47229 | 36941 ft | 516 kts | 354° |
| 2026-05-07 23:14 | 27.24495 | -97.46961 | 36942 ft | 516 kts | 354° |
| 2026-05-07 23:14 | 27.31683 | -97.46691 | 36945 ft | 517 kts | 354° |
| 2026-05-07 23:15 | 27.38833 | -97.46423 | 36944 ft | 518 kts | 354° |
| 2026-05-07 23:15 | 27.46047 | -97.46154 | 36947 ft | 518 kts | 354° |
| 2026-05-07 23:16 | 27.53264 | -97.45884 | 36950 ft | 519 kts | 354° |
| 2026-05-07 23:16 | 27.60480 | -97.45613 | 36980 ft | 518 kts | 354° |
| 2026-05-07 23:17 | 27.66474 | -97.45387 | 36978 ft | 518 kts | 354° |
| 2026-05-07 23:17 | 27.74856 | -97.45071 | 36981 ft | 518 kts | 354° |
| 2026-05-07 23:18 | 27.80899 | -97.44844 | 36978 ft | 518 kts | 354° |
| 2026-05-07 23:18 | 27.88073 | -97.44237 | 36989 ft | 530 kts | 5° |
| 2026-05-07 23:18 | 27.91644 | -97.43024 | 36963 ft | 542 kts | 15° |
| 2026-05-07 23:19 | 27.95046 | -97.41087 | 36960 ft | 552 kts | 27° |
| 2026-05-07 23:19 | 28.01066 | -97.35574 | 36965 ft | 560 kts | 38° |
| 2026-05-07 23:20 | 28.06939 | -97.29777 | 36960 ft | 559 kts | 36° |
| 2026-05-07 23:20 | 28.12978 | -97.24231 | 36966 ft | 559 kts | 34° |
| 2026-05-07 23:21 | 28.19072 | -97.18756 | 36991 ft | 559 kts | 34° |
| 2026-05-07 23:21 | 28.25180 | -97.13266 | 36971 ft | 561 kts | 34° |
| 2026-05-07 23:22 | 28.31292 | -97.07758 | 36972 ft | 561 kts | 34° |
| 2026-05-07 23:22 | 28.37405 | -97.02240 | 36977 ft | 561 kts | 34° |
| 2026-05-07 23:23 | 28.43463 | -96.96761 | 36714 ft | 557 kts | 34° |
| 2026-05-07 23:23 | 28.46492 | -96.94019 | 36046 ft | 557 kts | 34° |
| 2026-05-07 23:23 | 28.49506 | -96.91287 | 35233 ft | 549 kts | 34° |
| 2026-05-07 23:23 | 28.52484 | -96.88586 | 34364 ft | 543 kts | 34° |
| 2026-05-07 23:24 | 28.55409 | -96.85930 | 33857 ft | 531 kts | 34° |
| 2026-05-07 23:24 | 28.58243 | -96.83352 | 33414 ft | 516 kts | 34° |
| 2026-05-07 23:24 | 28.61028 | -96.80821 | 32690 ft | 509 kts | 34° |
| 2026-05-07 23:24 | 28.63781 | -96.78321 | 31949 ft | 504 kts | 34° |
| 2026-05-07 23:25 | 28.66507 | -96.75844 | 31248 ft | 498 kts | 34° |
| 2026-05-07 23:25 | 28.69200 | -96.73395 | 30556 ft | 492 kts | 34° |
| 2026-05-07 23:25 | 28.71860 | -96.70973 | 29851 ft | 487 kts | 34° |
| 2026-05-07 23:25 | 28.74487 | -96.68578 | 29114 ft | 480 kts | 34° |
| 2026-05-07 23:26 | 28.77042 | -96.66247 | 28390 ft | 473 kts | 34° |
| 2026-05-07 23:26 | 28.79596 | -96.63919 | 27688 ft | 466 kts | 34° |
| 2026-05-07 23:26 | 28.82255 | -96.61873 | 26928 ft | 455 kts | 24° |
| 2026-05-07 23:26 | 28.85064 | -96.60318 | 26238 ft | 443 kts | 15° |
| 2026-05-07 23:27 | 28.90748 | -96.57946 | 24827 ft | 430 kts | 14° |
| 2026-05-07 23:27 | 28.93532 | -96.56768 | 24298 ft | 421 kts | 14° |
| 2026-05-07 23:27 | 28.96270 | -96.55603 | 24079 ft | 421 kts | 14° |
| 2026-05-07 23:28 | 28.99034 | -96.54431 | 24003 ft | 427 kts | 15° |
| 2026-05-07 23:28 | 29.01814 | -96.53251 | 23987 ft | 425 kts | 15° |
| 2026-05-07 23:28 | 29.04578 | -96.52074 | 23983 ft | 423 kts | 15° |
| 2026-05-07 23:28 | 29.07340 | -96.50898 | 23983 ft | 424 kts | 15° |
| 2026-05-07 23:29 | 29.10104 | -96.49722 | 23993 ft | 425 kts | 14° |
| 2026-05-07 23:29 | 29.12888 | -96.48537 | 23984 ft | 426 kts | 14° |
| 2026-05-07 23:29 | 29.15657 | -96.47357 | 23980 ft | 425 kts | 14° |
| 2026-05-07 23:29 | 29.18431 | -96.46174 | 23981 ft | 425 kts | 14° |
| 2026-05-07 23:30 | 29.21195 | -96.44993 | 23981 ft | 424 kts | 14° |
| 2026-05-07 23:30 | 29.23964 | -96.43811 | 23980 ft | 424 kts | 14° |
| 2026-05-07 23:30 | 29.26728 | -96.42632 | 23982 ft | 424 kts | 14° |
| 2026-05-07 23:30 | 29.29494 | -96.41449 | 23980 ft | 424 kts | 15° |
| 2026-05-07 23:31 | 29.32199 | -96.40037 | 23921 ft | 426 kts | 21° |
| 2026-05-07 23:31 | 29.34844 | -96.38528 | 23621 ft | 424 kts | 21° |
| 2026-05-07 23:31 | 29.37483 | -96.37032 | 23171 ft | 421 kts | 21° |
| 2026-05-07 23:31 | 29.40102 | -96.35550 | 22552 ft | 420 kts | 21° |
| 2026-05-07 23:32 | 29.42686 | -96.34091 | 21956 ft | 417 kts | 21° |
| 2026-05-07 23:32 | 29.45237 | -96.32519 | 21359 ft | 418 kts | 29° |
| 2026-05-07 23:32 | 29.47499 | -96.30427 | 20783 ft | 418 kts | 41° |
| 2026-05-07 23:32 | 29.49372 | -96.27881 | 19993 ft | 415 kts | 52° |
| 2026-05-07 23:33 | 29.51100 | -96.25232 | 19222 ft | 412 kts | 51° |
| 2026-05-07 23:33 | 29.52821 | -96.22628 | 18500 ft | 407 kts | 51° |
| 2026-05-07 23:33 | 29.54555 | -96.20086 | 17844 ft | 400 kts | 47° |
| 2026-05-07 23:33 | 29.56480 | -96.17887 | 17340 ft | 384 kts | 40° |
| 2026-05-07 23:34 | 29.58401 | -96.15837 | 16940 ft | 369 kts | 40° |
| 2026-05-07 23:34 | 29.60252 | -96.13847 | 16350 ft | 361 kts | 41° |
| 2026-05-07 23:34 | 29.62071 | -96.11885 | 15727 ft | 356 kts | 41° |
| 2026-05-07 23:34 | 29.63858 | -96.09952 | 15120 ft | 350 kts | 41° |
| 2026-05-07 23:35 | 29.65611 | -96.08056 | 14579 ft | 342 kts | 41° |
| 2026-05-07 23:35 | 29.67310 | -96.06215 | 14176 ft | 330 kts | 41° |
| 2026-05-07 23:35 | 29.68964 | -96.04423 | 13634 ft | 324 kts | 41° |
| 2026-05-07 23:35 | 29.70583 | -96.02669 | 13037 ft | 317 kts | 42° |
| 2026-05-07 23:36 | 29.72209 | -96.00987 | 12395 ft | 311 kts | 36° |
| 2026-05-07 23:36 | 29.73980 | -95.99596 | 11780 ft | 305 kts | 32° |
| 2026-05-07 23:36 | 29.75711 | -95.98274 | 11185 ft | 300 kts | 33° |
| 2026-05-07 23:36 | 29.77433 | -95.96945 | 10541 ft | 296 kts | 33° |
| 2026-05-07 23:37 | 29.79121 | -95.95631 | 9924 ft | 292 kts | 34° |
| 2026-05-07 23:37 | 29.80795 | -95.94324 | 9234 ft | 288 kts | 34° |
| 2026-05-07 23:37 | 29.82432 | -95.93044 | 8602 ft | 281 kts | 34° |
| 2026-05-07 23:37 | 29.84036 | -95.91788 | 7938 ft | 278 kts | 34° |
| 2026-05-07 23:38 | 29.85630 | -95.90541 | 7277 ft | 274 kts | 34° |
| 2026-05-07 23:38 | 29.87195 | -95.89318 | 6637 ft | 269 kts | 34° |
| 2026-05-07 23:38 | 29.88735 | -95.88112 | 5947 ft | 266 kts | 34° |
| 2026-05-07 23:38 | 29.90261 | -95.86917 | 5327 ft | 262 kts | 35° |
| 2026-05-07 23:39 | 29.91771 | -95.85734 | 5097 ft | 261 kts | 35° |
| 2026-05-07 23:39 | 29.93213 | -95.84605 | 4986 ft | 238 kts | 34° |
| 2026-05-07 23:39 | 29.94541 | -95.83562 | 4986 ft | 233 kts | 35° |
| 2026-05-07 23:39 | 29.95895 | -95.82499 | 4971 ft | 236 kts | 35° |
| 2026-05-07 23:40 | 29.97215 | -95.81427 | 4941 ft | 233 kts | 41° |
| 2026-05-07 23:40 | 29.98210 | -95.79964 | 4950 ft | 233 kts | 66° |
| 2026-05-07 23:40 | 29.98743 | -95.78228 | 4946 ft | 224 kts | 73° |
| 2026-05-07 23:40 | 29.99118 | -95.76541 | 4845 ft | 211 kts | 82° |
| 2026-05-07 23:41 | 29.99264 | -95.74885 | 4523 ft | 206 kts | 89° |
| 2026-05-07 23:41 | 29.99282 | -95.73243 | 4177 ft | 202 kts | 92° |
| 2026-05-07 23:41 | 29.99277 | -95.71647 | 3987 ft | 194 kts | 91° |
| 2026-05-07 23:41 | 29.99279 | -95.70042 | 3962 ft | 204 kts | 90° |
| 2026-05-07 23:42 | 29.99283 | -95.68424 | 3980 ft | 203 kts | 90° |
| 2026-05-07 23:42 | 29.99288 | -95.66797 | 3971 ft | 202 kts | 90° |
| 2026-05-07 23:42 | 29.99291 | -95.65219 | 3948 ft | 190 kts | 90° |
| 2026-05-07 23:42 | 29.99295 | -95.63747 | 3859 ft | 176 kts | 91° |
| 2026-05-07 23:43 | 29.99295 | -95.62386 | 3788 ft | 163 kts | 91° |
| 2026-05-07 23:43 | 29.99300 | -95.61133 | 3689 ft | 150 kts | 91° |
| 2026-05-07 23:43 | 29.99300 | -95.59977 | 3596 ft | 140 kts | 91° |
| 2026-05-07 23:43 | 29.99302 | -95.58830 | 3533 ft | 141 kts | 91° |
| 2026-05-07 23:44 | 29.99304 | -95.57704 | 3482 ft | 144 kts | 91° |
| 2026-05-07 23:44 | 29.99306 | -95.56549 | 3417 ft | 145 kts | 90° |
| 2026-05-07 23:44 | 29.99309 | -95.55371 | 3305 ft | 142 kts | 91° |
| 2026-05-07 23:44 | 29.99310 | -95.54272 | 3151 ft | 137 kts | 91° |
| 2026-05-07 23:45 | 29.99312 | -95.53160 | 2999 ft | 137 kts | 91° |
| 2026-05-07 23:45 | 29.99313 | -95.52063 | 2832 ft | 137 kts | 90° |
| 2026-05-07 23:45 | 29.99315 | -95.50959 | 2663 ft | 134 kts | 91° |
| 2026-05-07 23:45 | 29.99316 | -95.49876 | 2496 ft | 140 kts | 90° |
| 2026-05-07 23:46 | 29.99318 | -95.48768 | 2321 ft | 132 kts | 90° |
| 2026-05-07 23:46 | 29.99320 | -95.47692 | 2144 ft | 140 kts | 90° |
| 2026-05-07 23:46 | 29.99320 | -95.46608 | 1965 ft | 131 kts | 89° |
| 2026-05-07 23:46 | 29.99322 | -95.45504 | 1785 ft | 138 kts | 88° |
| 2026-05-07 23:47 | 29.99326 | -95.44430 | 1607 ft | 136 kts | 89° |
| 2026-05-07 23:47 | 29.99325 | -95.43337 | 1418 ft | 132 kts | 88° |
| 2026-05-07 23:47 | 29.99324 | -95.42249 | 1255 ft | 141 kts | 87° |
| 2026-05-07 23:47 | 29.99315 | -95.41157 | 1033 ft | 131 kts | 85° |
| 2026-05-07 23:48 | 29.99344 | -95.40120 | 791 ft | 140 kts | 84° |
| 2026-05-07 23:48 | 29.99345 | -95.38976 | 672 ft | 144 kts | 87° |
| 2026-05-07 23:48 | 29.99316 | -95.37823 | 477 ft | 145 kts | 86° |
| 2026-05-07 23:48 | 29.99319 | -95.36674 | 294 ft | 134 kts | 85° |
| 2026-05-07 23:49 | 29.99330 | -95.35549 | 159 ft | 145 kts | 85° |
| 2026-05-07 23:49 | 29.99350 | -95.34434 | 102 ft | 136 kts | 85° |
| 2026-05-07 23:49 | 29.99358 | -95.33653 | 107 ft | 75 kts | 89° |
| 2026-05-07 23:49 | 29.99315 | -95.33279 | 108 ft | 24 kts | 117° |
| 2026-05-07 23:50 | 29.99251 | -95.33164 | 107 ft | 0 kts | 126° |
| 2026-05-07 23:50 | 29.99246 | -95.33155 | 107 ft | 3 kts | 126° |
| 2026-05-07 23:50 | 29.99243 | -95.33151 | 107 ft | 0 kts | 126° |
| 2026-05-07 23:50 | 29.99241 | -95.33147 | 107 ft | 4 kts | 127° |
| 2026-05-07 23:51 | 29.99193 | -95.33147 | 106 ft | 6 kts | 212° |
| 2026-05-07 23:51 | 29.99179 | -95.33195 | 107 ft | 7 kts | 259° |
| 2026-05-07 23:51 | 29.99180 | -95.33262 | 107 ft | 10 kts | 270° |
| 2026-05-07 23:51 | 29.99180 | -95.33349 | 107 ft | 12 kts | 270° |
| 2026-05-07 23:52 | 29.99181 | -95.33454 | 106 ft | 14 kts | 270° |
| 2026-05-07 23:52 | 29.99180 | -95.33574 | 106 ft | 16 kts | 269° |
| 2026-05-07 23:52 | 29.99144 | -95.33672 | 107 ft | 13 kts | 209° |
| 2026-05-07 23:52 | 29.99073 | -95.33707 | 106 ft | 8 kts | 208° |
| 2026-05-07 23:53 | 29.99011 | -95.33719 | 106 ft | 10 kts | 181° |
| 2026-05-07 23:53 | 29.98939 | -95.33702 | 105 ft | 11 kts | 142° |
| 2026-05-07 23:53 | 29.98879 | -95.33635 | 106 ft | 13 kts | 142° |
| 2026-05-07 23:53 | 29.98834 | -95.33603 | 106 ft | 1 kts | 147° |
| 2026-05-07 23:54 | 29.98829 | -95.33599 | 106 ft | 4 kts | 146° |
| 2026-05-07 23:54 | 29.98824 | -95.33595 | 106 ft | 0 kts | 146° |